Flight Track Log - Related Links

Times and Time Zones

All times are in EDT time to prevent confusion due to time zone crossing. See the N2299W flight status page for this flight to view local times or setup timezone preferences in your user account.


Time Position Orientation Groundspeed Altitude Reporting Facility
EDT Latitude Longitude Course Direction KTS MPH feet Rate Location/Type
Tue 04:12:41 PM 30.2164 -81.8733 80° East 52 60 500  Level Jacksonville Center
Tue 04:13:17 PM 30.2186 -81.8589 80° East 69 79 800 527 Climbing Jacksonville Center
Tue 04:14:12 PM 30.2039 -81.8494 151° Southeast 86 99 1,300 590 Climbing Jacksonville Center
Tue 04:15:19 PM 30.1808 -81.8497 181° South 77 89 2,000 563 Climbing Jacksonville Center
Tue 04:16:20 PM 30.1600 -81.8500 181° South 81 93 2,500 443 Climbing Jacksonville Center
Tue 04:17:21 PM 30.1350 -81.8478 176° South 93 107 2,900 492 Climbing Jacksonville Center
Tue 04:18:22 PM 30.1119 -81.8600 205° Southwest 89 102 3,500 492 Climbing Jacksonville Center
Tue 04:19:23 PM 30.0911 -81.8675 197° South 83 96 3,900 375 Climbing Jacksonville Center
Tue 04:20:30 PM 30.0642 -81.8750 194° South 86 99 4,300 414 Climbing Jacksonville Center
Tue 04:21:19 PM 30.0456 -81.8872 210° Southwest 91 105 4,700 344 Climbing Jacksonville Center
Tue 04:22:32 PM 30.0142 -81.8972 195° South 91 105 5,000 141 Climbing Jacksonville Center
Tue 04:23:27 PM 29.9892 -81.9069 199° South 100 115 5,000  Level Jacksonville Center
Tue 04:24:28 PM 29.9642 -81.9217 207° Southwest 102 117 5,000 50 Level Jacksonville Center
Tue 04:25:28 PM 29.9372 -81.9314 197° South 105 121 5,100 -52 Climbing Jacksonville Center
Tue 04:26:24 PM 29.9122 -81.9461 207° Southwest 106 122 4,900 -362 Descending Jacksonville Center
Tue 04:27:24 PM 29.8853 -81.9558 197° South 106 122 4,400 -446 Descending Jacksonville Center
Tue 04:28:25 PM 29.8603 -81.9681 203° Southwest 103 119 4,000 -443 Descending Jacksonville Center
Tue 04:29:26 PM 29.8331 -81.9828 205° Southwest 101 116 3,500 -492 Descending Jacksonville Center
Tue 04:30:27 PM 29.8042 -81.9997 207° Southwest 102 117 3,000 -246 Descending Jacksonville Center
Tue 04:31:28 PM 29.7792 -82.0144 207° Southwest 108 124 3,000 49 Level Jacksonville Center
Tue 04:32:29 PM 29.7519 -82.0267 201° Southwest 109 125 3,100  Climbing Jacksonville Center
Tue 04:33:30 PM 29.7231 -82.0436 207° Southwest 111 128 3,000 -99 Descending Jacksonville Center
Tue 04:34:30 PM 29.7000 -82.0628 216° Southwest 113 130 2,900  Descending Jacksonville Center
Tue 04:35:37 PM 29.6689 -82.0750 199° South 107 123 3,000 49 Climbing Jacksonville Center
Tue 04:36:32 PM 29.6419 -82.0872 202° Southwest 106 122 3,000  Level Jacksonville Center
Tue 04:37:39 PM 29.6128 -82.0969 196° South 108 124 3,000  Level Jacksonville Center
Tue 04:38:34 PM 29.5836 -82.1117 204° Southwest 113 130 3,000 -52 Level Jacksonville Center
Tue 04:39:35 PM 29.5564 -82.1261 205° Southwest 106 122 2,900  Descending Jacksonville Center
Tue 04:40:42 PM 29.5253 -82.1431 205° Southwest 107 123 3,000 49 Climbing Jacksonville Center
Tue 04:41:37 PM 29.5022 -82.1553 205° Southwest 105 121 3,000  Level Jacksonville Center
Tue 04:42:38 PM 29.4753 -82.1722 209° Southwest 108 124 3,000  Level Jacksonville Center
Tue 04:43:39 PM 29.4461 -82.1842 200° South 110 127 3,000  Level Jacksonville Center
Tue 04:44:40 PM 29.4192 -82.1989 205° Southwest 109 125 3,000  Level Jacksonville Center
Tue 04:45:35 PM 29.3942 -82.2108 203° Southwest 106 122 3,000  Level Jacksonville Center
Tue 04:46:42 PM 29.3650 -82.2278 207° Southwest 112 129 3,000 -281 Level Jacksonville Center
Tue 04:47:43 PM 29.3358 -82.2303 184° South 101 116 2,400 -517 Descending Jacksonville Center
Tue 04:48:38 PM 29.3128 -82.2281 175° South 97 112 2,000 -344 Descending Jacksonville Center
Tue 04:49:45 PM 29.2814 -82.2258 176° South 99 114 1,700 -188 Descending Jacksonville Center
Tue 04:50:46 PM 29.2564 -82.2261 181° South 89 102 1,600 -310 Descending Jacksonville Center
Tue 04:51:41 PM 29.2314 -82.2264 181° South 97 112 1,100 -517 Descending Jacksonville Center
Tue 04:52:42 PM 29.2064 -82.2242 176° South 95 109 600 -446 Descending Jacksonville Center
Tue 04:53:42 PM 29.1792 -82.2267 185° South 100 115 200 -179 Descending Jacksonville Center
Tue 04:54:56 PM 29.1708 -82.2267 180° South 100 115 200 279 Level Jacksonville Center
Tue 04:55:51 PM 29.1417 -82.2150 161° South 77 89 800 569 Climbing Jacksonville Center
Tue 04:56:52 PM 29.1394 -82.1936 97° East 77 89 1,300 609 Climbing Jacksonville Center
Tue 04:57:59 PM 29.1664 -82.1839 17° North 85 98 2,100 689 Climbing Jacksonville Center
Tue 04:58:54 PM 29.1853 -82.1767 18° North 82 94 2,700 522 Climbing Jacksonville Center
Tue 04:59:54 PM 29.2061 -82.1694 17° North 83 96 3,100 347 Climbing Jacksonville Center
Tue 05:00:55 PM 29.2289 -82.1597 20° North 84 97 3,400 393 Climbing Jacksonville Center
Tue 05:01:56 PM 29.2519 -82.1547 11° North 85 98 3,900 295 Climbing Jacksonville Center
Tue 05:02:57 PM 29.2789 -82.1450 17° North 94 108 4,000 47 Climbing Jacksonville Center
Tue 05:04:04 PM 29.3081 -82.1306 23° Northeast 108 124 4,000  Level Jacksonville Center
Tue 05:05:05 PM 29.3331 -82.1208 19° North 99 114 4,000  Level Jacksonville Center
Tue 05:06:06 PM 29.3622 -82.1111 16° North 108 124 4,000  Level Jacksonville Center
Tue 05:07:07 PM 29.3914 -82.0989 20° North 105 121 4,000 -49 Level Jacksonville Center
Tue 05:08:08 PM 29.4206 -82.0892 16° North 106 122 3,900  Descending Jacksonville Center
Tue 05:09:09 PM 29.4497 -82.0794 16° North 105 121 4,000 49 Climbing Jacksonville Center
Tue 05:10:10 PM 29.4789 -82.0672 20° North 104 120 4,000  Level Jacksonville Center
Tue 05:11:11 PM 29.5058 -82.0575 17° North 106 122 4,000  Level Jacksonville Center
Tue 05:12:12 PM 29.5350 -82.0475 17° North 106 122 4,000  Level Jacksonville Center
Tue 05:13:13 PM 29.5600 -82.0378 19° North 103 119 4,000  Level Jacksonville Center
Tue 05:14:26 PM 29.5975 -82.0281 13° North 108 124 4,000 -45 Level Jacksonville Center
Tue 05:15:26 PM 29.6247 -82.0181 18° North 107 123 3,900  Descending Jacksonville Center
Tue 05:16:27 PM 29.6581 -82.0083 14° North 121 139 4,000 52 Climbing Jacksonville Center
Tue 05:17:22 PM 29.6831 -81.9986 19° North 108 124 4,000  Level Jacksonville Center
Tue 05:18:30 PM 29.7142 -81.9864 19° North 104 120 4,000  Level Jacksonville Center
Tue 05:19:36 PM 29.7456 -81.9764 15° North 106 122 4,000 47 Level Jacksonville Center
Tue 05:20:37 PM 29.7725 -81.9642 21° North 105 121 4,100  Climbing Jacksonville Center
Tue 05:21:20 PM 29.7933 -81.9592 12° North 108 124 4,000 -52 Descending Jacksonville Center
Tue 05:22:33 PM 29.8286 -81.9444 20° North 107 123 4,000  Level Jacksonville Center
Tue 05:23:28 PM 29.8536 -81.9369 15° North 102 117 4,000 -310 Level Jacksonville Center
Tue 05:24:29 PM 29.8808 -81.9225 25° Northeast 108 124 3,400 -541 Descending Jacksonville Center
Tue 05:25:30 PM 29.9078 -81.9172 10° North 102 117 2,900 -541 Descending Jacksonville Center
Tue 05:26:31 PM 29.9369 -81.9100 12° North 104 120 2,300 -466 Descending Jacksonville Center
Tue 05:27:26 PM 29.9642 -81.8975 22° Northeast 103 119 2,000 -148 Descending Jacksonville Center
Tue 05:28:33 PM 29.9953 -81.8878 15° North 101 116 2,000  Level Jacksonville Center
Tue 05:29:28 PM 30.0183 -81.8778 21° North 102 117 2,000 -52 Level Jacksonville Center
Tue 05:30:29 PM 30.0475 -81.8750 North 105 121 1,900 -94 Descending Jacksonville Center
Tue 05:31:36 PM 30.0767 -81.8725 North 87 100 1,800  Descending Jacksonville Center
Tue 05:32:37 PM 30.1039 -81.8769 352° North 96 110 1,900 -155 Climbing Jacksonville Center
Tue 05:33:32 PM 30.1267 -81.8767 North 93 107 1,500 -517 Descending Jacksonville Center
Tue 05:34:33 PM 30.1539 -81.8764 North 95 109 900 -492 Descending Jacksonville Center
Tue 05:35:34 PM 30.1811 -81.8761 North 95 109 500 -49 Descending Jacksonville Center
Tue 05:36:35 PM 30.1958 -81.9000 305° West 100 115 800 295 Climbing Jacksonville Center

Login

Don't have an account? Register now (free) for customized features, flight alerts, and more!